Thailine 9 — 9WGP9 — position and weather

sailwx.info

Track history (hours):
 
Tides and Currents Weather Stations Pressure Air Temp Water Temp Dewpoint Dewpoint Depression Visibility Wind Speed Wind Dir Waves Ship Positions

Thailine 9

Last reported at 2016-Sep-02 13:33 UTC. Time now 2016-Sep-29 13:33 UTC.
Position N 34°36' E 134°54'.
Warning: this ship's position is 26 days out of date.

Length 113 m; draft 5.4 m.

Type: Ship. MMSI: 533791000.

Date/timePositionNaut miles runAvg speedWind from/ knotsBaromVisibWave heightAir tempDewpointWater temp
2016-Sep-02 13:33N 34°36' E 134°54'9 9.3
2016-Sep-02 12:33N 34°32' E 135°04'1313.4
2016-Sep-02 11:33N 34°19' E 135°00'1313.2
2016-Sep-02 10:34N 34°06' E 134°60'1512.3
2016-Sep-02 09:21N 33°51' E 135°00'20510.7
2016-Sep-01 14:13N 34°35' E 139°03'710.1
2016-Sep-01 13:33N 34°41' E 139°08'1110.5
2016-Sep-01 12:31N 34°49' E 139°16'1410.2
2016-Sep-01 11:10N 34°58' E 139°29'810.7
2016-Sep-01 10:24N 35°02' E 139°37'910.1
2016-Sep-01 09:33N 35°09' E 139°44'1010.1
2016-Sep-01 08:33N 35°19' E 139°43'9 8.6
2016-Sep-01 07:33N 35°27' E 139°41'0 0.5
2016-Sep-01 06:33N 35°28' E 139°40'0 0.0
2016-Sep-01 05:33N 35°28' E 139°40'0 0.0
2016-Sep-01 04:33N 35°28' E 139°40'0 0.0
2016-Sep-01 03:34N 35°28' E 139°40'0 0.0
2016-Sep-01 02:33N 35°28' E 139°40'0 0.0
2016-Sep-01 01:33N 35°28' E 139°40'0 0.0
2016-Sep-01 00:33N 35°28' E 139°40'0 0.0
2016-Aug-31 23:33N 35°28' E 139°40'0 0.0
2016-Aug-31 22:33N 35°28' E 139°40'2 2.1
2016-Aug-31 21:34N 35°26' E 139°42'0 0.1
2016-Aug-31 20:33N 35°26' E 139°42'0 0.1
2016-Aug-31 19:33N 35°26' E 139°42'0 0.1
2016-Aug-31 18:33N 35°26' E 139°42'0 0.0
2016-Aug-31 17:33N 35°26' E 139°42'0 0.0
2016-Aug-31 16:33N 35°26' E 139°42'0 0.0
2016-Aug-31 15:33N 35°26' E 139°42'0 0.0
2016-Aug-31 14:33N 35°26' E 139°42'0 0.1
2016-Aug-31 13:33N 35°26' E 139°42'0 0.0
2016-Aug-31 12:33N 35°26' E 139°42'0 0.0
2016-Aug-31 11:33N 35°26' E 139°42'0 0.0
2016-Aug-31 10:33N 35°26' E 139°42'0 0.1
2016-Aug-31 09:33N 35°26' E 139°42'2 1.5
2016-Aug-31 08:33N 35°26' E 139°44'9 9.5
2016-Aug-31 07:33N 35°31' E 139°54'9 8.9
2016-Aug-31 06:34N 35°39' E 139°59'2 1.5
2016-Aug-31 05:28N 35°40' E 139°58'0 0.0
2016-Aug-31 04:28N 35°40' E 139°58'0 0.0
2016-Aug-31 03:22N 35°40' E 139°58'0 0.0
2016-Aug-31 02:16N 35°40' E 139°58'0 0.0
2016-Aug-31 01:28N 35°40' E 139°58'0 0.0
2016-Aug-31 00:28N 35°40' E 139°58'0 0.0
2016-Aug-30 23:22N 35°40' E 139°58'0 0.0
2016-Aug-30 22:22N 35°40' E 139°58'0 0.0
2016-Aug-30 21:19N 35°40' E 139°58'0 0.0
2016-Aug-30 20:28N 35°40' E 139°58'0 0.0
2016-Aug-30 19:22N 35°40' E 139°58'0 0.0
2016-Aug-30 18:31N 35°40' E 139°58'0 0.0
2016-Aug-30 17:28N 35°40' E 139°58'0 0.0
2016-Aug-30 16:31N 35°40' E 139°58'0 0.0
2016-Aug-30 14:28N 35°40' E 139°58'0 0.0
2016-Aug-30 13:22N 35°40' E 139°58'0 0.0
2016-Aug-30 12:28N 35°40' E 139°58'0 0.0
2016-Aug-30 11:28N 35°40' E 139°58'0 0.0
2016-Aug-30 10:22N 35°40' E 139°58'0 0.0
2016-Aug-30 08:28N 35°40' E 139°58'0 0.0
2016-Aug-30 07:16N 35°40' E 139°58'0 0.0
2016-Aug-30 06:16N 35°40' E 139°58'0 0.0
2016-Aug-30 04:10N 35°40' E 139°58'0 0.0
2016-Aug-30 02:22N 35°40' E 139°58'0 0.0
2016-Aug-30 01:28N 35°40' E 139°58'0 0.0
2016-Aug-30 00:31N 35°40' E 139°58'0 0.0
2016-Aug-29 22:28N 35°40' E 139°58'0 0.0
2016-Aug-29 21:31N 35°40' E 139°58'0 0.0
2016-Aug-29 20:31N 35°40' E 139°58'0 0.0
2016-Aug-29 19:31N 35°40' E 139°58'0 0.0
2016-Aug-29 18:31N 35°40' E 139°58'0 0.0
2016-Aug-29 17:31N 35°40' E 139°58'0 0.0
2016-Aug-29 16:16N 35°40' E 139°58'0 0.0
2016-Aug-29 15:28N 35°40' E 139°58'0 0.0
2016-Aug-29 14:28N 35°40' E 139°58'0 0.0
2016-Aug-29 13:16N 35°40' E 139°58'0 0.0
2016-Aug-29 12:16N 35°40' E 139°58'0 0.0
2016-Aug-29 11:28N 35°40' E 139°58'0 0.0
2016-Aug-29 10:31N 35°40' E 139°58'0 0.0
2016-Aug-29 09:16N 35°40' E 139°58'0 0.0
2016-Aug-29 08:31N 35°40' E 139°58'0 0.0
2016-Aug-29 06:28N 35°40' E 139°58'2 2.3
2016-Aug-29 05:33N 35°38' E 139°59'4 3.4
2016-Aug-29 04:28N 35°35' E 140°00'0 0.1
2016-Aug-29 03:31N 35°35' E 139°60'0 0.0
2016-Aug-29 02:31N 35°35' E 140°00'0 0.0
2016-Aug-29 01:28N 35°35' E 140°00'0 0.0
2016-Aug-29 00:28N 35°35' E 140°00'0 0.1
2016-Aug-28 23:31N 35°35' E 139°60'0 0.0
2016-Aug-28 22:31N 35°35' E 139°60'0 0.0
2016-Aug-28 21:28N 35°35' E 139°60'0 0.0
2016-Aug-28 20:31N 35°35' E 139°60'0 0.0
2016-Aug-28 19:31N 35°35' E 139°60'0 0.0
2016-Aug-28 18:31N 35°35' E 139°60'0 0.0
2016-Aug-28 17:25N 35°35' E 139°60'0 0.0
2016-Aug-28 16:31N 35°35' E 139°60'0 0.0
2016-Aug-28 15:31N 35°35' E 139°60'0 0.0
2016-Aug-28 14:31N 35°35' E 139°60'0 0.0
2016-Aug-28 13:31N 35°35' E 139°60'0 0.0
2016-Aug-28 12:31N 35°35' E 139°60'0 0.0
2016-Aug-28 11:31N 35°35' E 139°60'0 0.0
2016-Aug-28 10:31N 35°35' E 139°60'0 0.0
2016-Aug-28 09:31N 35°35' E 139°60'0 0.0
2016-Aug-28 08:31N 35°35' E 139°60'0 0.0
2016-Aug-28 07:31N 35°35' E 139°60'0 0.0
2016-Aug-28 06:28N 35°35' E 139°60'0 0.0
2016-Aug-28 05:28N 35°35' E 139°60'0 0.0
2016-Aug-28 04:31N 35°35' E 139°60'0 0.0
2016-Aug-28 03:31N 35°35' E 139°60'0 0.0
2016-Aug-28 02:31N 35°35' E 139°60'0 0.0
2016-Aug-28 01:28N 35°35' E 139°60'0 0.0
2016-Aug-28 00:28N 35°35' E 139°60'0 0.0
2016-Aug-27 23:31N 35°35' E 139°60'0 0.0
2016-Aug-27 22:31N 35°35' E 139°60'0 0.0
2016-Aug-27 21:28N 35°35' E 139°60'0 0.0
2016-Aug-27 20:31N 35°35' E 139°60'0 0.0
2016-Aug-27 19:31N 35°35' E 139°60'0 0.0
2016-Aug-27 18:31N 35°35' E 139°60'0 0.0
2016-Aug-27 17:31N 35°35' E 139°60'0 0.0
2016-Aug-27 16:28N 35°35' E 139°60'0 0.0
2016-Aug-27 15:31N 35°35' E 139°60'0 0.0
2016-Aug-27 14:31N 35°35' E 139°60'0 0.0
2016-Aug-27 13:04N 35°35' E 139°60'0 0.1
2016-Aug-27 12:28N 35°35' E 139°60'0 0.0
2016-Aug-27 11:28N 35°35' E 139°60'0 0.0
2016-Aug-27 10:22N 35°35' E 139°60'0 0.0
2016-Aug-27 09:28N 35°35' E 139°60'0 0.0
2016-Aug-27 08:28N 35°35' E 139°60'0 0.0
2016-Aug-27 07:28N 35°35' E 139°60'0 0.0
2016-Aug-27 06:28N 35°35' E 139°60'0 0.0
2016-Aug-27 04:28N 35°35' E 139°60'0 0.0
2016-Aug-27 03:22N 35°35' E 139°60'0 0.0
2016-Aug-27 02:31N 35°35' E 139°60'0 0.0
2016-Aug-27 01:28N 35°35' E 139°60'0 0.0
2016-Aug-27 00:30N 35°35' E 139°60'0 0.0
2016-Aug-26 23:27N 35°35' E 139°60'0 0.0
2016-Aug-26 22:18N 35°35' E 139°60'0 0.1
2016-Aug-26 21:21N 35°35' E 139°60'0 0.1
2016-Aug-26 20:24N 35°35' E 140°00'0 0.0
2016-Aug-26 19:18N 35°35' E 140°00'0 0.0
2016-Aug-26 18:30N 35°35' E 140°00'0 0.0
2016-Aug-26 17:24N 35°35' E 140°00'0 0.0
2016-Aug-26 16:24N 35°35' E 140°00'0 0.0
2016-Aug-26 15:18N 35°35' E 140°00'0 0.0
2016-Aug-26 14:30N 35°35' E 140°00'0 0.0
2016-Aug-26 13:15N 35°35' E 140°00'0 0.1
2016-Aug-26 12:30N 35°35' E 140°00'0 0.0
2016-Aug-26 11:30N 35°35' E 140°00'0 0.0
2016-Aug-26 10:33N 35°35' E 140°00'0 0.1
2016-Aug-26 09:30N 35°35' E 140°00'0 0.0
2016-Aug-26 08:30N 35°35' E 140°00'0 0.1
2016-Aug-26 07:33N 35°35' E 140°00'5 4.5
2016-Aug-26 06:33N 35°37' E 140°05'0 0.0
2016-Aug-26 04:32N 35°37' E 140°05'0 0.0
2016-Aug-26 03:20N 35°37' E 140°05'0 0.0
2016-Aug-26 02:32N 35°37' E 140°05'0 0.0
2016-Aug-26 01:29N 35°37' E 140°05'0 0.0
2016-Aug-26 00:08N 35°37' E 140°05'0 0.0
2016-Aug-25 23:29N 35°37' E 140°05'0 0.4
2016-Aug-25 22:32N 35°36' E 140°05'5 5.3
2016-Aug-25 21:34N 35°34' E 139°60'0 0.0
2016-Aug-25 20:28N 35°34' E 139°60'0 0.0
2016-Aug-25 19:26N 35°34' E 139°60'0 0.0
2016-Aug-25 18:34N 35°34' E 139°60'3 3.5
2016-Aug-25 17:34N 35°32' E 139°56'1111.2
2016-Aug-25 16:33N 35°24' E 139°46'10 9.7
2016-Aug-25 15:34N 35°14' E 139°47'1110.7
2016-Aug-25 14:33N 35°04' E 139°43'1712.1
2016-Aug-25 13:09N 34°53' E 139°27'228 9.6
2016-Aug-24 13:27N 33°52' E 135°01'910.5
2016-Aug-24 12:33N 34°02' E 134°59'1211.9
2016-Aug-24 11:33N 34°13' E 134°58'1211.8
2016-Aug-24 10:33N 34°25' E 135°01'1110.9
2016-Aug-24 09:33N 34°36' E 135°03'  
Track history (hours):
 
Tides and Currents Weather Stations Pressure Air Temp Water Temp Dewpoint Dewpoint Depression Visibility Wind Speed Wind Dir Waves Ship Positions

Thailine 9

Last reported at 2016-Sep-02 13:33 UTC. Time now 2016-Sep-29 13:33 UTC.
Position N 34°36' E 134°54'.
Warning: this ship's position is 26 days out of date.

Length 113 m; draft 5.4 m.

Type: Ship. MMSI: 533791000.

Date/timePositionNaut miles runAvg speedWind from/ knotsBaromVisibWave heightAir tempDewpointWater temp
2016-Sep-02 13:33N 34°36' E 134°54'9 9.3
2016-Sep-02 12:33N 34°32' E 135°04'1313.4
2016-Sep-02 11:33N 34°19' E 135°00'1313.2
2016-Sep-02 10:34N 34°06' E 134°60'1512.3
2016-Sep-02 09:21N 33°51' E 135°00'20510.7
2016-Sep-01 14:13N 34°35' E 139°03'710.1
2016-Sep-01 13:33N 34°41' E 139°08'1110.5
2016-Sep-01 12:31N 34°49' E 139°16'1410.2
2016-Sep-01 11:10N 34°58' E 139°29'810.7
2016-Sep-01 10:24N 35°02' E 139°37'910.1
2016-Sep-01 09:33N 35°09' E 139°44'1010.1
2016-Sep-01 08:33N 35°19' E 139°43'9 8.6
2016-Sep-01 07:33N 35°27' E 139°41'0 0.5
2016-Sep-01 06:33N 35°28' E 139°40'0 0.0
2016-Sep-01 05:33N 35°28' E 139°40'0 0.0
2016-Sep-01 04:33N 35°28' E 139°40'0 0.0
2016-Sep-01 03:34N 35°28' E 139°40'0 0.0
2016-Sep-01 02:33N 35°28' E 139°40'0 0.0
2016-Sep-01 01:33N 35°28' E 139°40'0 0.0
2016-Sep-01 00:33N 35°28' E 139°40'0 0.0
2016-Aug-31 23:33N 35°28' E 139°40'0 0.0
2016-Aug-31 22:33N 35°28' E 139°40'2 2.1
2016-Aug-31 21:34N 35°26' E 139°42'0 0.1
2016-Aug-31 20:33N 35°26' E 139°42'0 0.1
2016-Aug-31 19:33N 35°26' E 139°42'0 0.1
2016-Aug-31 18:33N 35°26' E 139°42'0 0.0
2016-Aug-31 17:33N 35°26' E 139°42'0 0.0
2016-Aug-31 16:33N 35°26' E 139°42'0 0.0
2016-Aug-31 15:33N 35°26' E 139°42'0 0.0
2016-Aug-31 14:33N 35°26' E 139°42'0 0.1
2016-Aug-31 13:33N 35°26' E 139°42'0 0.0
2016-Aug-31 12:33N 35°26' E 139°42'0 0.0
2016-Aug-31 11:33N 35°26' E 139°42'0 0.0
2016-Aug-31 10:33N 35°26' E 139°42'0 0.1
2016-Aug-31 09:33N 35°26' E 139°42'2 1.5
2016-Aug-31 08:33N 35°26' E 139°44'9 9.5
2016-Aug-31 07:33N 35°31' E 139°54'9 8.9
2016-Aug-31 06:34N 35°39' E 139°59'2 1.5
2016-Aug-31 05:28N 35°40' E 139°58'0 0.0
2016-Aug-31 04:28N 35°40' E 139°58'0 0.0
2016-Aug-31 03:22N 35°40' E 139°58'0 0.0
2016-Aug-31 02:16N 35°40' E 139°58'0 0.0
2016-Aug-31 01:28N 35°40' E 139°58'0 0.0
2016-Aug-31 00:28N 35°40' E 139°58'0 0.0
2016-Aug-30 23:22N 35°40' E 139°58'0 0.0
2016-Aug-30 22:22N 35°40' E 139°58'0 0.0
2016-Aug-30 21:19N 35°40' E 139°58'0 0.0
2016-Aug-30 20:28N 35°40' E 139°58'0 0.0
2016-Aug-30 19:22N 35°40' E 139°58'0 0.0
2016-Aug-30 18:31N 35°40' E 139°58'0 0.0
2016-Aug-30 17:28N 35°40' E 139°58'0 0.0
2016-Aug-30 16:31N 35°40' E 139°58'0 0.0
2016-Aug-30 14:28N 35°40' E 139°58'0 0.0
2016-Aug-30 13:22N 35°40' E 139°58'0 0.0
2016-Aug-30 12:28N 35°40' E 139°58'0 0.0
2016-Aug-30 11:28N 35°40' E 139°58'0 0.0
2016-Aug-30 10:22N 35°40' E 139°58'0 0.0
2016-Aug-30 08:28N 35°40' E 139°58'0 0.0
2016-Aug-30 07:16N 35°40' E 139°58'0 0.0
2016-Aug-30 06:16N 35°40' E 139°58'0 0.0
2016-Aug-30 04:10N 35°40' E 139°58'0 0.0
2016-Aug-30 02:22N 35°40' E 139°58'0 0.0
2016-Aug-30 01:28N 35°40' E 139°58'0 0.0
2016-Aug-30 00:31N 35°40' E 139°58'0 0.0
2016-Aug-29 22:28N 35°40' E 139°58'0 0.0
2016-Aug-29 21:31N 35°40' E 139°58'0 0.0
2016-Aug-29 20:31N 35°40' E 139°58'0 0.0
2016-Aug-29 19:31N 35°40' E 139°58'0 0.0
2016-Aug-29 18:31N 35°40' E 139°58'0 0.0
2016-Aug-29 17:31N 35°40' E 139°58'0 0.0
2016-Aug-29 16:16N 35°40' E 139°58'0 0.0
2016-Aug-29 15:28N 35°40' E 139°58'0 0.0
2016-Aug-29 14:28N 35°40' E 139°58'0 0.0
2016-Aug-29 13:16N 35°40' E 139°58'0 0.0
2016-Aug-29 12:16N 35°40' E 139°58'0 0.0
2016-Aug-29 11:28N 35°40' E 139°58'0 0.0
2016-Aug-29 10:31N 35°40' E 139°58'0 0.0
2016-Aug-29 09:16N 35°40' E 139°58'0 0.0
2016-Aug-29 08:31N 35°40' E 139°58'0 0.0
2016-Aug-29 06:28N 35°40' E 139°58'2 2.3
2016-Aug-29 05:33N 35°38' E 139°59'4 3.4
2016-Aug-29 04:28N 35°35' E 140°00'0 0.1
2016-Aug-29 03:31N 35°35' E 139°60'0 0.0
2016-Aug-29 02:31N 35°35' E 140°00'0 0.0
2016-Aug-29 01:28N 35°35' E 140°00'0 0.0
2016-Aug-29 00:28N 35°35' E 140°00'0 0.1
2016-Aug-28 23:31N 35°35' E 139°60'0 0.0
2016-Aug-28 22:31N 35°35' E 139°60'0 0.0
2016-Aug-28 21:28N 35°35' E 139°60'0 0.0
2016-Aug-28 20:31N 35°35' E 139°60'0 0.0
2016-Aug-28 19:31N 35°35' E 139°60'0 0.0
2016-Aug-28 18:31N 35°35' E 139°60'0 0.0
2016-Aug-28 17:25N 35°35' E 139°60'0 0.0
2016-Aug-28 16:31N 35°35' E 139°60'0 0.0
2016-Aug-28 15:31N 35°35' E 139°60'0 0.0
2016-Aug-28 14:31N 35°35' E 139°60'0 0.0
2016-Aug-28 13:31N 35°35' E 139°60'0 0.0
2016-Aug-28 12:31N 35°35' E 139°60'0 0.0
2016-Aug-28 11:31N 35°35' E 139°60'0 0.0
2016-Aug-28 10:31N 35°35' E 139°60'0 0.0
2016-Aug-28 09:31N 35°35' E 139°60'0 0.0
2016-Aug-28 08:31N 35°35' E 139°60'0 0.0
2016-Aug-28 07:31N 35°35' E 139°60'0 0.0
2016-Aug-28 06:28N 35°35' E 139°60'0 0.0
2016-Aug-28 05:28N 35°35' E 139°60'0 0.0
2016-Aug-28 04:31N 35°35' E 139°60'0 0.0
2016-Aug-28 03:31N 35°35' E 139°60'0 0.0
2016-Aug-28 02:31N 35°35' E 139°60'0 0.0
2016-Aug-28 01:28N 35°35' E 139°60'0 0.0
2016-Aug-28 00:28N 35°35' E 139°60'0 0.0
2016-Aug-27 23:31N 35°35' E 139°60'0 0.0
2016-Aug-27 22:31N 35°35' E 139°60'0 0.0
2016-Aug-27 21:28N 35°35' E 139°60'0 0.0
2016-Aug-27 20:31N 35°35' E 139°60'0 0.0
2016-Aug-27 19:31N 35°35' E 139°60'0 0.0
2016-Aug-27 18:31N 35°35' E 139°60'0 0.0
2016-Aug-27 17:31N 35°35' E 139°60'0 0.0
2016-Aug-27 16:28N 35°35' E 139°60'0 0.0
2016-Aug-27 15:31N 35°35' E 139°60'0 0.0
2016-Aug-27 14:31N 35°35' E 139°60'0 0.0
2016-Aug-27 13:04N 35°35' E 139°60'0 0.1
2016-Aug-27 12:28N 35°35' E 139°60'0 0.0
2016-Aug-27 11:28N 35°35' E 139°60'0 0.0
2016-Aug-27 10:22N 35°35' E 139°60'0 0.0
2016-Aug-27 09:28N 35°35' E 139°60'0 0.0
2016-Aug-27 08:28N 35°35' E 139°60'0 0.0
2016-Aug-27 07:28N 35°35' E 139°60'0 0.0
2016-Aug-27 06:28N 35°35' E 139°60'0 0.0
2016-Aug-27 04:28N 35°35' E 139°60'0 0.0
2016-Aug-27 03:22N 35°35' E 139°60'0 0.0
2016-Aug-27 02:31N 35°35' E 139°60'0 0.0
2016-Aug-27 01:28N 35°35' E 139°60'0 0.0
2016-Aug-27 00:30N 35°35' E 139°60'0 0.0
2016-Aug-26 23:27N 35°35' E 139°60'0 0.0
2016-Aug-26 22:18N 35°35' E 139°60'0 0.1
2016-Aug-26 21:21N 35°35' E 139°60'0 0.1
2016-Aug-26 20:24N 35°35' E 140°00'0 0.0
2016-Aug-26 19:18N 35°35' E 140°00'0 0.0
2016-Aug-26 18:30N 35°35' E 140°00'0 0.0
2016-Aug-26 17:24N 35°35' E 140°00'0 0.0
2016-Aug-26 16:24N 35°35' E 140°00'0 0.0
2016-Aug-26 15:18N 35°35' E 140°00'0 0.0
2016-Aug-26 14:30N 35°35' E 140°00'0 0.0
2016-Aug-26 13:15N 35°35' E 140°00'0 0.1
2016-Aug-26 12:30N 35°35' E 140°00'0 0.0
2016-Aug-26 11:30N 35°35' E 140°00'0 0.0
2016-Aug-26 10:33N 35°35' E 140°00'0 0.1
2016-Aug-26 09:30N 35°35' E 140°00'0 0.0
2016-Aug-26 08:30N 35°35' E 140°00'0 0.1
2016-Aug-26 07:33N 35°35' E 140°00'5 4.5
2016-Aug-26 06:33N 35°37' E 140°05'0 0.0
2016-Aug-26 04:32N 35°37' E 140°05'0 0.0
2016-Aug-26 03:20N 35°37' E 140°05'0 0.0
2016-Aug-26 02:32N 35°37' E 140°05'0 0.0
2016-Aug-26 01:29N 35°37' E 140°05'0 0.0
2016-Aug-26 00:08N 35°37' E 140°05'0 0.0
2016-Aug-25 23:29N 35°37' E 140°05'0 0.4
2016-Aug-25 22:32N 35°36' E 140°05'5 5.3
2016-Aug-25 21:34N 35°34' E 139°60'0 0.0
2016-Aug-25 20:28N 35°34' E 139°60'0 0.0
2016-Aug-25 19:26N 35°34' E 139°60'0 0.0
2016-Aug-25 18:34N 35°34' E 139°60'3 3.5
2016-Aug-25 17:34N 35°32' E 139°56'1111.2
2016-Aug-25 16:33N 35°24' E 139°46'10 9.7
2016-Aug-25 15:34N 35°14' E 139°47'1110.7
2016-Aug-25 14:33N 35°04' E 139°43'1712.1
2016-Aug-25 13:09N 34°53' E 139°27'228 9.6
2016-Aug-24 13:27N 33°52' E 135°01'910.5
2016-Aug-24 12:33N 34°02' E 134°59'1211.9
2016-Aug-24 11:33N 34°13' E 134°58'1211.8
2016-Aug-24 10:33N 34°25' E 135°01'1110.9
2016-Aug-24 09:33N 34°36' E 135°03'  

Dump ship's entire track history